首页
METAR-TAF:

METAR-TAF

机场 :

Tiree, 苏格兰

纬度: 56-30N, 经度: 006-53W, 海拔: 12米

当前天气观测

该预报发布于54分钟前的20:20 UTC
风速18节,风向多变
温度 10°C
湿度 87%
气压 1006 hPa
能见度10公里或以上

METAR: EGPU 062020Z AUTO VRB18KT 9999 OVC014/// 10/08 Q1006

时间: 22:14 (21:14 UTC)

预报

该预报发布于1小时和18分钟前的19:56 UTC
预报有效从06日的 21点(UTC)到 07日的 06点(UTC)
风速18节,风向
能见度10公里或以上
散云层高于700英尺
多云层高于1500英尺
短暂存在
从 06日的 21点(UTC)到 07日的 06点(UTC)
风速20节,风向,有时为30节阵风
能見度: 6000
多云层高于700英尺
几率 30% :
短暂存在
从 06日的 21点(UTC)到 07日的 05点(UTC)
能見度: 3000
多云层高于400英尺
雨, 毛毛雨

TAF: EGPU 061956Z 0621/0706 36018KT 9999 SCT007 BKN015 TEMPO 0621/0706 01020G30KT 6000 BKN007 PROB30 TEMPO 0621/0705 3000 RADZ BKN004

超过4000个机场的气象观测和天气预报(METAR&TAF报告)。

可查询的气象台以黄色和红色小点在地图上表示。

将鼠标移到小点上方,可查看气象台名称。

然后点击查看天气观测和预报。

如需切换地图:点击带黑十字的绿色按钮放大地图;点击带横线的绿色按钮缩小地图;或者点击绿色箭头查看邻近地区的地图。


METAR-TAF: